Orbital elements of FENGYUN 1C DEB
| Launched | 9 May 1999 |
| Flight ended | – |
| Launch site | Taiyuan Space Center, PRC |
| Owner | People's Republic of China |
| NORAD ID | 30624 |
| Date fetched |
Epoch osculation |
Inc. [°] |
Ecc. | RA asc node [hr] |
Arg Peri. [°] |
Mean anom [°] |
Mean motion [rev/day] |
Abs. mag |
| Date fetched |
Epoch osculation |
Inc. [°] |
Ecc. | RA asc node [hr] |
Arg Peri. [°] |
Mean anom [°] |
Mean motion [rev/day] |
Abs. mag |
| 2026 May 01 17:56 | 2026 Apr 29 05:00:27 | 98.8800 | 0.00201 | 14.4944 | 204.7612 | 155.2627 | 14.69527 | – |
| 2026 Apr 30 17:56 | 2026 Apr 29 05:00:27 | 98.8800 | 0.00201 | 14.4944 | 204.7612 | 155.2627 | 14.69527 | – |
| 2026 Apr 29 17:57 | 2026 Apr 23 05:11:23 | 98.8777 | 0.00196 | 14.0602 | 221.4253 | 155.2627 | 14.69527 | – |
| 2026 Apr 28 17:56 | 2026 Apr 23 05:11:23 | 98.8777 | 0.00196 | 14.0602 | 221.4253 | 155.2627 | 14.69527 | – |
| 2026 Apr 27 17:58 | 2026 Apr 23 05:11:23 | 98.8777 | 0.00196 | 14.0602 | 221.4253 | 155.2627 | 14.69527 | – |
| 2026 Apr 26 17:58 | 2026 Apr 23 05:11:23 | 98.8777 | 0.00196 | 14.0602 | 221.4253 | 155.2627 | 14.69527 | – |
| 2026 Apr 25 17:58 | 2026 Apr 23 05:11:23 | 98.8777 | 0.00196 | 14.0602 | 221.4253 | 155.2627 | 14.69527 | – |
| 2026 Apr 24 17:59 | 2026 Apr 23 05:11:23 | 98.8777 | 0.00196 | 14.0602 | 221.4253 | 155.2627 | 14.69527 | – |
| 2026 Apr 23 17:57 | 2026 Apr 18 23:51:01 | 98.8798 | 0.00187 | 13.7544 | 233.3021 | 155.2627 | 14.69527 | – |
| 2026 Apr 22 17:57 | 2026 Apr 18 23:51:01 | 98.8798 | 0.00187 | 13.7544 | 233.3021 | 155.2627 | 14.69527 | – |
| 2026 Apr 21 17:57 | 2026 Apr 18 23:51:01 | 98.8798 | 0.00187 | 13.7544 | 233.3021 | 155.2627 | 14.69527 | – |
| 2026 Apr 20 17:57 | 2026 Apr 18 23:51:01 | 98.8798 | 0.00187 | 13.7544 | 233.3021 | 155.2627 | 14.69527 | – |
| 2026 Apr 19 17:58 | 2026 Apr 18 23:51:01 | 98.8798 | 0.00187 | 13.7544 | 233.3021 | 155.2627 | 14.69527 | – |
| 2026 Apr 18 17:56 | 2026 Apr 13 04:54:14 | 98.8779 | 0.00182 | 13.3353 | 251.3073 | 155.2627 | 14.69527 | – |
| 2026 Apr 16 17:57 | 2026 Apr 13 04:54:14 | 98.8779 | 0.00182 | 13.3353 | 251.3073 | 155.2627 | 14.69527 | – |
| 2026 Apr 14 17:57 | 2026 Apr 13 04:54:14 | 98.8779 | 0.00182 | 13.3353 | 251.3073 | 155.2627 | 14.69527 | – |
| 2026 Apr 13 17:57 | 2026 Apr 13 04:54:14 | 98.8779 | 0.00182 | 13.3353 | 251.3073 | 155.2627 | 14.69527 | – |
| 2026 Apr 12 17:57 | 2026 Apr 06 04:30:57 | 98.8789 | 0.00170 | 12.8274 | 273.1389 | 155.2627 | 14.69527 | – |
| 2026 Apr 11 17:57 | 2026 Apr 06 04:30:57 | 98.8789 | 0.00170 | 12.8274 | 273.1389 | 155.2627 | 14.69527 | – |
| 2026 Apr 10 17:58 | 2026 Apr 06 04:30:57 | 98.8789 | 0.00170 | 12.8274 | 273.1389 | 155.2627 | 14.69527 | – |
| 2026 Apr 09 18:01 | 2026 Apr 06 04:30:57 | 98.8789 | 0.00170 | 12.8274 | 273.1389 | 155.2627 | 14.69527 | – |
| 2026 Apr 08 17:57 | 2026 Apr 06 04:30:57 | 98.8789 | 0.00170 | 12.8274 | 273.1389 | 155.2627 | 14.69527 | – |
| 2026 Apr 07 17:57 | 2026 Apr 01 05:08:57 | 98.8799 | 0.00162 | 12.4676 | 289.0508 | 155.2627 | 14.69527 | – |
| 2026 Apr 06 17:57 | 2026 Apr 01 05:08:57 | 98.8799 | 0.00162 | 12.4676 | 289.0508 | 155.2627 | 14.69527 | – |
| 2026 Apr 05 17:56 | 2026 Apr 01 05:08:57 | 98.8799 | 0.00162 | 12.4676 | 289.0508 | 155.2627 | 14.69527 | – |
| 2026 Apr 04 17:57 | 2026 Apr 01 05:08:57 | 98.8799 | 0.00162 | 12.4676 | 289.0508 | 155.2627 | 14.69527 | – |